PDT,Max TemperatureF,Mean TemperatureF,Min TemperatureF,Max Dew PointF,MeanDew PointF,Min DewpointF,Max Humidity, Mean Humidity, Min Humidity, Max Sea Level PressureIn, Mean Sea Level PressureIn, Min Sea Level PressureIn, Max VisibilityMiles, Mean VisibilityMiles, Min VisibilityMiles, Max Wind SpeedMPH, Mean Wind SpeedMPH, Max Gust SpeedMPH,PrecipitationIn, CloudCover, Events, WindDirDegrees
2013-4-1,65,57,49,51,49,46,89,76,63,30.19,30.12,30.03,10,10,10,13,6,17,0.00,7,,204
2013-4-2,65,57,50,49,47,46,89,71,52,30.23,30.20,30.14,10,10,10,12,4,14,0.00,5,,210
2013-4-3,65,54,44,52,48,44,100,80,60,30.19,30.10,29.92,10,10,5,8,3,10,0.00,2,,14
2013-4-4,61,57,53,55,52,47,100,82,64,29.90,29.78,29.71,10,8,2,18,7,31,0.21,8,Rain,193
2013-4-5,57,54,51,50,49,47,89,78,67,29.97,29.93,29.84,10,10,6,24,11,33,0.20,8,Rain,194
2013-4-6,55,50,46,49,45,42,100,83,66,30.02,29.94,29.73,10,7,2,21,7,29,0.98,8,Rain,200
2013-4-7,52,47,40,47,43,37,93,80,66,29.99,29.74,29.58,10,10,10,21,8,31,T,8,Rain,212
2013-4-8,55,47,39,45,41,38,93,76,59,30.31,30.19,30.01,10,10,7,10,4,15,0.01,7,Rain,219
2013-4-9,56,47,38,47,41,37,100,81,61,30.38,30.34,30.26,10,10,10,6,1,8,0.00,6,,130
2013-4-10,61,54,45,52,45,38,89,73,57,30.36,30.23,30.16,10,10,6,22,8,31,0.03,8,Rain,223
2013-4-11,57,46,38,42,39,37,100,78,55,30.37,30.30,30.20,10,10,10,8,2,13,0.00,4,,356
2013-4-12,53,44,36,45,40,34,93,80,66,30.19,30.01,29.89,10,9,4,16,5,22,0.05,5,Rain,228
2013-4-13,50,44,37,38,36,33,86,71,56,30.12,30.06,29.97,10,10,10,17,9,25,0.01,6,Rain,226
2013-4-14,51,44,38,42,39,35,93,80,66,30.12,30.03,29.96,10,9,3,14,6,18,0.05,7,Rain,201
2013-4-15,57,46,37,41,36,31,100,69,38,30.19,30.05,29.97,10,10,10,16,2,20,0.05,7,Rain,47
2013-4-16,60,48,37,42,38,32,100,69,37,30.41,30.30,30.21,10,10,10,14,4,25,0.00,5,,21
2013-4-17,58,46,35,42,39,34,92,70,47,30.52,30.47,30.43,10,10,10,8,2,12,0.00,4,,231
2013-4-18,60,53,46,47,42,39,83,67,51,30.50,30.44,30.34,10,10,10,9,3,14,0.04,7,Rain,271
2013-4-19,58,52,48,52,48,45,100,86,72,30.33,30.25,30.19,10,10,7,20,10,28,0.27,8,Rain,208
2013-4-20,58,52,47,45,43,39,86,72,57,30.36,30.33,30.28,10,10,10,10,5,14,0.00,7,,234
2013-4-21,56,50,43,47,43,39,86,77,68,30.34,30.30,30.26,10,10,10,12,5,16,0.00,8,,229
2013-4-22,66,50,37,43,36,26,100,62,24,30.44,30.39,30.35,10,10,10,18,9,24,0.00,0,,16
2013-4-23,69,55,38,37,32,25,73,46,19,30.39,30.27,30.16,10,10,10,17,8,25,0.00,0,,15
2013-4-24,75,59,40,38,34,29,65,43,20,30.25,30.15,30.02,10,10,10,15,9,20,0.00,0,,12
2013-4-25,74,58,42,50,41,37,89,61,33,30.16,30.08,30.04,10,10,10,9,2,10,0.00,0,,87
2013-4-26,80,63,46,48,44,35,93,57,20,30.26,30.22,30.18,10,10,10,7,0,9,0.00,0,,25
2013-4-27,71,58,44,47,42,34,92,59,26,30.27,30.24,30.20,10,10,10,14,4,21,0.00,1,,249
2013-4-28,66,58,51,48,45,37,83,60,37,30.28,30.23,30.12,10,10,10,16,8,22,T,7,,219
2013-4-29,58,50,37,48,38,29,89,66,42,30.26,30.17,30.10,10,10,10,15,7,22,0.00,5,,278
2013-4-30,56,45,35,37,33,28,92,65,38,30.46,30.35,30.27,10,10,8,13,3,21,T,4,Rain,340